sensor_id;sensor_type;location;lat;lon;timestamp;temperature;humidity
21678;DHT22;11000;50.360;7.582;2023-06-22T00:01:14;23.40;99.90
21678;DHT22;11000;50.360;7.582;2023-06-22T00:03:35;23.40;99.90
21678;DHT22;11000;50.360;7.582;2023-06-22T00:05:55;23.30;99.90
21678;DHT22;11000;50.360;7.582;2023-06-22T00:08:18;23.40;99.90
21678;DHT22;11000;50.360;7.582;2023-06-22T00:10:38;23.40;99.90
21678;DHT22;11000;50.360;7.582;2023-06-22T00:12:59;23.40;99.90
21678;DHT22;11000;50.360;7.582;2023-06-22T00:15:20;23.40;99.90
21678;DHT22;11000;50.360;7.582;2023-06-22T00:17:40;23.40;99.90
21678;DHT22;11000;50.360;7.582;2023-06-22T00:20:01;23.30;99.90
21678;DHT22;11000;50.360;7.582;2023-06-22T00:22:22;23.30;99.90
21678;DHT22;11000;50.360;7.582;2023-06-22T00:24:48;23.30;99.90
21678;DHT22;11000;50.360;7.582;2023-06-22T00:27:09;23.20;99.90
21678;DHT22;11000;50.360;7.582;2023-06-22T00:29:29;23.10;99.90
21678;DHT22;11000;50.360;7.582;2023-06-22T00:31:50;23.10;99.90
21678;DHT22;11000;50.360;7.582;2023-06-22T00:34:10;23.10;99.90
21678;DHT22;11000;50.360;7.582;2023-06-22T00:36:31;23.10;99.90
21678;DHT22;11000;50.360;7.582;2023-06-22T00:38:51;23.10;99.90
21678;DHT22;11000;50.360;7.582;2023-06-22T00:41:12;23.10;99.90
21678;DHT22;11000;50.360;7.582;2023-06-22T00:43:32;23.00;99.90
21678;DHT22;11000;50.360;7.582;2023-06-22T00:45:55;23.00;99.90
21678;DHT22;11000;50.360;7.582;2023-06-22T00:48:17;22.90;99.90
21678;DHT22;11000;50.360;7.582;2023-06-22T00:50:37;23.00;99.90
21678;DHT22;11000;50.360;7.582;2023-06-22T00:53:00;23.00;99.90
21678;DHT22;11000;50.360;7.582;2023-06-22T00:55:22;23.00;99.90
21678;DHT22;11000;50.360;7.582;2023-06-22T00:57:45;23.00;99.90
21678;DHT22;11000;50.360;7.582;2023-06-22T01:00:07;22.90;99.90
21678;DHT22;11000;50.360;7.582;2023-06-22T01:02:40;22.80;99.90
21678;DHT22;11000;50.360;7.582;2023-06-22T01:05:01;22.80;99.90
21678;DHT22;11000;50.360;7.582;2023-06-22T01:09:59;22.50;99.90
21678;DHT22;11000;50.360;7.582;2023-06-22T01:12:22;22.50;99.90
21678;DHT22;11000;50.360;7.582;2023-06-22T01:14:49;22.50;99.90
21678;DHT22;11000;50.360;7.582;2023-06-22T01:17:14;22.50;99.90
21678;DHT22;11000;50.360;7.582;2023-06-22T01:19:51;22.50;99.90
21678;DHT22;11000;50.360;7.582;2023-06-22T01:22:17;22.50;99.90
21678;DHT22;11000;50.360;7.582;2023-06-22T01:25:11;22.50;99.90
21678;DHT22;11000;50.360;7.582;2023-06-22T01:30:02;22.50;99.90
21678;DHT22;11000;50.360;7.582;2023-06-22T01:32:32;22.50;99.90
21678;DHT22;11000;50.360;7.582;2023-06-22T01:34:53;22.50;99.90
21678;DHT22;11000;50.360;7.582;2023-06-22T01:37:14;22.50;99.90
21678;DHT22;11000;50.360;7.582;2023-06-22T01:39:35;22.50;99.90
21678;DHT22;11000;50.360;7.582;2023-06-22T01:41:57;22.50;99.90
21678;DHT22;11000;50.360;7.582;2023-06-22T01:44:18;22.50;99.90
21678;DHT22;11000;50.360;7.582;2023-06-22T01:46:39;22.50;99.90
21678;DHT22;11000;50.360;7.582;2023-06-22T01:49:04;22.50;99.90
21678;DHT22;11000;50.360;7.582;2023-06-22T01:51:25;22.50;99.90
21678;DHT22;11000;50.360;7.582;2023-06-22T01:53:45;22.40;99.90
21678;DHT22;11000;50.360;7.582;2023-06-22T01:56:08;22.30;99.90
21678;DHT22;11000;50.360;7.582;2023-06-22T01:58:29;22.40;99.90
21678;DHT22;11000;50.360;7.582;2023-06-22T02:01:09;22.40;99.90
21678;DHT22;11000;50.360;7.582;2023-06-22T02:03:34;22.40;99.90
21678;DHT22;11000;50.360;7.582;2023-06-22T02:06:01;22.40;99.90
21678;DHT22;11000;50.360;7.582;2023-06-22T02:08:26;22.40;99.90
21678;DHT22;11000;50.360;7.582;2023-06-22T02:10:49;22.30;99.90
21678;DHT22;11000;50.360;7.582;2023-06-22T02:13:11;22.40;99.90
21678;DHT22;11000;50.360;7.582;2023-06-22T02:15:33;22.40;99.90
21678;DHT22;11000;50.360;7.582;2023-06-22T02:17:54;22.30;99.90
21678;DHT22;11000;50.360;7.582;2023-06-22T02:20:15;22.30;99.90
21678;DHT22;11000;50.360;7.582;2023-06-22T02:22:35;22.20;99.90
21678;DHT22;11000;50.360;7.582;2023-06-22T02:24:57;22.20;99.90
21678;DHT22;11000;50.360;7.582;2023-06-22T02:27:18;22.10;99.90
21678;DHT22;11000;50.360;7.582;2023-06-22T02:29:39;22.10;99.90
21678;DHT22;11000;50.360;7.582;2023-06-22T02:31:59;21.90;99.90
21678;DHT22;11000;50.360;7.582;2023-06-22T02:34:21;21.80;99.90
21678;DHT22;11000;50.360;7.582;2023-06-22T02:36:42;21.80;99.90
21678;DHT22;11000;50.360;7.582;2023-06-22T02:39:11;21.80;99.90
21678;DHT22;11000;50.360;7.582;2023-06-22T02:41:31;21.90;99.90
21678;DHT22;11000;50.360;7.582;2023-06-22T02:43:52;21.90;99.90
21678;DHT22;11000;50.360;7.582;2023-06-22T02:46:13;21.80;99.90
21678;DHT22;11000;50.360;7.582;2023-06-22T02:48:34;21.80;99.90
21678;DHT22;11000;50.360;7.582;2023-06-22T02:50:55;21.90;99.90
21678;DHT22;11000;50.360;7.582;2023-06-22T02:53:15;22.00;99.90
21678;DHT22;11000;50.360;7.582;2023-06-22T02:55:36;21.90;99.90
21678;DHT22;11000;50.360;7.582;2023-06-22T02:57:56;22.00;99.90
21678;DHT22;11000;50.360;7.582;2023-06-22T03:00:17;22.00;99.90
21678;DHT22;11000;50.360;7.582;2023-06-22T03:02:38;22.00;99.90
21678;DHT22;11000;50.360;7.582;2023-06-22T03:04:58;22.00;99.90
21678;DHT22;11000;50.360;7.582;2023-06-22T03:07:21;22.00;99.90
21678;DHT22;11000;50.360;7.582;2023-06-22T03:09:41;22.00;99.90
21678;DHT22;11000;50.360;7.582;2023-06-22T03:12:02;21.90;99.90
21678;DHT22;11000;50.360;7.582;2023-06-22T03:14:23;22.00;99.90
21678;DHT22;11000;50.360;7.582;2023-06-22T03:16:43;22.00;99.90
21678;DHT22;11000;50.360;7.582;2023-06-22T03:19:04;22.00;99.90
21678;DHT22;11000;50.360;7.582;2023-06-22T03:21:28;21.90;99.90
21678;DHT22;11000;50.360;7.582;2023-06-22T03:23:49;21.90;99.90
21678;DHT22;11000;50.360;7.582;2023-06-22T03:26:09;21.80;99.90
21678;DHT22;11000;50.360;7.582;2023-06-22T03:28:31;21.70;99.90
21678;DHT22;11000;50.360;7.582;2023-06-22T03:30:51;21.70;99.90
21678;DHT22;11000;50.360;7.582;2023-06-22T03:33:12;21.70;99.90
21678;DHT22;11000;50.360;7.582;2023-06-22T03:35:32;21.70;99.90
21678;DHT22;11000;50.360;7.582;2023-06-22T03:37:53;21.70;99.90
21678;DHT22;11000;50.360;7.582;2023-06-22T03:40:13;21.80;99.90
21678;DHT22;11000;50.360;7.582;2023-06-22T03:42:34;21.70;99.90
21678;DHT22;11000;50.360;7.582;2023-06-22T03:44:58;21.70;99.90
21678;DHT22;11000;50.360;7.582;2023-06-22T03:47:18;21.70;99.90
21678;DHT22;11000;50.360;7.582;2023-06-22T03:49:39;21.70;99.90
21678;DHT22;11000;50.360;7.582;2023-06-22T03:52:00;21.60;99.90
21678;DHT22;11000;50.360;7.582;2023-06-22T03:54:22;21.60;99.90
21678;DHT22;11000;50.360;7.582;2023-06-22T03:56:42;21.50;99.90
21678;DHT22;11000;50.360;7.582;2023-06-22T03:59:03;21.40;99.90
21678;DHT22;11000;50.360;7.582;2023-06-22T04:01:23;21.60;99.90
21678;DHT22;11000;50.360;7.582;2023-06-22T04:03:44;21.60;99.90
21678;DHT22;11000;50.360;7.582;2023-06-22T04:06:04;21.70;99.90
21678;DHT22;11000;50.360;7.582;2023-06-22T04:08:25;21.70;99.90
21678;DHT22;11000;50.360;7.582;2023-06-22T04:10:45;21.80;99.90
21678;DHT22;11000;50.360;7.582;2023-06-22T04:13:06;21.80;99.90
21678;DHT22;11000;50.360;7.582;2023-06-22T04:15:27;21.80;99.90
21678;DHT22;11000;50.360;7.582;2023-06-22T04:17:47;21.80;99.90
21678;DHT22;11000;50.360;7.582;2023-06-22T04:20:08;21.80;99.90
21678;DHT22;11000;50.360;7.582;2023-06-22T04:22:28;21.80;99.90
21678;DHT22;11000;50.360;7.582;2023-06-22T04:24:49;21.70;99.90
21678;DHT22;11000;50.360;7.582;2023-06-22T04:27:12;21.70;99.90
21678;DHT22;11000;50.360;7.582;2023-06-22T04:29:32;21.60;99.90
21678;DHT22;11000;50.360;7.582;2023-06-22T04:31:53;21.50;99.90
21678;DHT22;11000;50.360;7.582;2023-06-22T04:34:13;21.50;99.90
21678;DHT22;11000;50.360;7.582;2023-06-22T04:36:38;21.40;99.90
21678;DHT22;11000;50.360;7.582;2023-06-22T04:38:59;21.40;99.90
21678;DHT22;11000;50.360;7.582;2023-06-22T04:41:19;21.50;99.90
21678;DHT22;11000;50.360;7.582;2023-06-22T04:43:43;21.30;99.90
21678;DHT22;11000;50.360;7.582;2023-06-22T04:46:04;21.20;99.90
21678;DHT22;11000;50.360;7.582;2023-06-22T04:48:24;21.40;99.90
21678;DHT22;11000;50.360;7.582;2023-06-22T04:50:45;21.40;99.90
21678;DHT22;11000;50.360;7.582;2023-06-22T04:53:05;21.50;99.90
21678;DHT22;11000;50.360;7.582;2023-06-22T04:55:27;21.60;99.90
21678;DHT22;11000;50.360;7.582;2023-06-22T04:57:48;21.70;99.90
21678;DHT22;11000;50.360;7.582;2023-06-22T05:00:09;21.70;99.90
21678;DHT22;11000;50.360;7.582;2023-06-22T05:02:33;21.70;99.90
21678;DHT22;11000;50.360;7.582;2023-06-22T05:04:53;21.70;99.90
21678;DHT22;11000;50.360;7.582;2023-06-22T05:07:17;21.70;99.90
21678;DHT22;11000;50.360;7.582;2023-06-22T05:09:37;21.70;99.90
21678;DHT22;11000;50.360;7.582;2023-06-22T05:11:58;21.80;99.90
21678;DHT22;11000;50.360;7.582;2023-06-22T05:14:20;21.80;99.90
21678;DHT22;11000;50.360;7.582;2023-06-22T05:16:44;21.90;99.90
21678;DHT22;11000;50.360;7.582;2023-06-22T05:19:05;22.00;99.90
21678;DHT22;11000;50.360;7.582;2023-06-22T05:21:27;22.10;99.90
21678;DHT22;11000;50.360;7.582;2023-06-22T05:23:47;22.20;99.90
21678;DHT22;11000;50.360;7.582;2023-06-22T05:26:08;22.30;99.90
21678;DHT22;11000;50.360;7.582;2023-06-22T05:28:30;22.30;99.90
21678;DHT22;11000;50.360;7.582;2023-06-22T05:30:51;22.30;99.90
21678;DHT22;11000;50.360;7.582;2023-06-22T05:33:11;22.30;99.90
21678;DHT22;11000;50.360;7.582;2023-06-22T05:35:31;22.30;99.90
21678;DHT22;11000;50.360;7.582;2023-06-22T05:37:52;22.30;99.90
21678;DHT22;11000;50.360;7.582;2023-06-22T05:40:12;22.40;99.90
21678;DHT22;11000;50.360;7.582;2023-06-22T05:42:33;22.40;99.90
21678;DHT22;11000;50.360;7.582;2023-06-22T05:44:53;22.40;99.90
21678;DHT22;11000;50.360;7.582;2023-06-22T05:47:15;22.30;99.90
21678;DHT22;11000;50.360;7.582;2023-06-22T05:49:36;22.40;99.90
21678;DHT22;11000;50.360;7.582;2023-06-22T05:51:56;22.60;99.90
21678;DHT22;11000;50.360;7.582;2023-06-22T05:54:17;22.80;99.90
21678;DHT22;11000;50.360;7.582;2023-06-22T05:56:38;22.90;99.90
21678;DHT22;11000;50.360;7.582;2023-06-22T05:58:58;23.10;99.90
21678;DHT22;11000;50.360;7.582;2023-06-22T06:01:19;23.30;99.90
21678;DHT22;11000;50.360;7.582;2023-06-22T06:03:39;23.50;99.90
21678;DHT22;11000;50.360;7.582;2023-06-22T06:06:01;23.90;99.90
21678;DHT22;11000;50.360;7.582;2023-06-22T06:08:22;24.30;99.90
21678;DHT22;11000;50.360;7.582;2023-06-22T06:10:43;24.60;99.90
21678;DHT22;11000;50.360;7.582;2023-06-22T06:13:03;24.80;99.90
21678;DHT22;11000;50.360;7.582;2023-06-22T06:15:27;25.00;99.90
21678;DHT22;11000;50.360;7.582;2023-06-22T06:17:49;24.20;99.90
21678;DHT22;11000;50.360;7.582;2023-06-22T06:20:10;24.10;99.90
21678;DHT22;11000;50.360;7.582;2023-06-22T06:22:32;24.30;99.90
21678;DHT22;11000;50.360;7.582;2023-06-22T06:24:52;24.30;99.90
21678;DHT22;11000;50.360;7.582;2023-06-22T06:27:13;24.40;99.90
21678;DHT22;11000;50.360;7.582;2023-06-22T06:29:34;25.00;99.90
21678;DHT22;11000;50.360;7.582;2023-06-22T06:31:54;25.60;99.90
21678;DHT22;11000;50.360;7.582;2023-06-22T06:34:15;25.80;99.90
21678;DHT22;11000;50.360;7.582;2023-06-22T06:36:35;25.00;99.90
21678;DHT22;11000;50.360;7.582;2023-06-22T06:38:56;25.30;99.90
21678;DHT22;11000;50.360;7.582;2023-06-22T06:41:18;25.70;99.90
21678;DHT22;11000;50.360;7.582;2023-06-22T06:43:39;26.20;99.90
21678;DHT22;11000;50.360;7.582;2023-06-22T06:46:00;25.90;99.90
21678;DHT22;11000;50.360;7.582;2023-06-22T06:48:20;25.80;99.90
21678;DHT22;11000;50.360;7.582;2023-06-22T06:50:41;25.90;99.90
21678;DHT22;11000;50.360;7.582;2023-06-22T06:53:04;25.90;99.90
21678;DHT22;11000;50.360;7.582;2023-06-22T06:55:25;26.30;99.90
21678;DHT22;11000;50.360;7.582;2023-06-22T06:57:46;26.20;99.90
21678;DHT22;11000;50.360;7.582;2023-06-22T07:00:12;26.10;99.90
21678;DHT22;11000;50.360;7.582;2023-06-22T07:02:34;26.20;99.90
21678;DHT22;11000;50.360;7.582;2023-06-22T07:04:54;25.90;99.90
21678;DHT22;11000;50.360;7.582;2023-06-22T07:07:17;26.10;99.90
21678;DHT22;11000;50.360;7.582;2023-06-22T07:09:38;25.90;99.90
21678;DHT22;11000;50.360;7.582;2023-06-22T07:11:58;25.40;99.90
21678;DHT22;11000;50.360;7.582;2023-06-22T07:14:19;25.30;99.90
21678;DHT22;11000;50.360;7.582;2023-06-22T07:16:40;25.50;99.90
21678;DHT22;11000;50.360;7.582;2023-06-22T07:19:00;25.70;99.90
21678;DHT22;11000;50.360;7.582;2023-06-22T07:21:21;25.90;99.90
21678;DHT22;11000;50.360;7.582;2023-06-22T07:23:41;26.10;99.90
21678;DHT22;11000;50.360;7.582;2023-06-22T07:26:02;26.40;99.90
21678;DHT22;11000;50.360;7.582;2023-06-22T07:28:22;27.10;99.90
21678;DHT22;11000;50.360;7.582;2023-06-22T07:30:43;27.30;99.90
21678;DHT22;11000;50.360;7.582;2023-06-22T07:33:03;27.70;99.90
21678;DHT22;11000;50.360;7.582;2023-06-22T07:35:26;28.30;99.90
21678;DHT22;11000;50.360;7.582;2023-06-22T07:37:46;28.40;99.90
21678;DHT22;11000;50.360;7.582;2023-06-22T07:40:07;27.70;99.90
21678;DHT22;11000;50.360;7.582;2023-06-22T07:42:28;27.70;99.90
21678;DHT22;11000;50.360;7.582;2023-06-22T07:44:53;27.90;99.90
21678;DHT22;11000;50.360;7.582;2023-06-22T07:47:14;28.10;99.90
21678;DHT22;11000;50.360;7.582;2023-06-22T07:49:35;27.90;99.90
21678;DHT22;11000;50.360;7.582;2023-06-22T07:51:55;27.60;99.90
21678;DHT22;11000;50.360;7.582;2023-06-22T07:54:16;27.70;99.90
21678;DHT22;11000;50.360;7.582;2023-06-22T07:56:37;27.90;99.90
21678;DHT22;11000;50.360;7.582;2023-06-22T07:58:58;28.10;99.90
21678;DHT22;11000;50.360;7.582;2023-06-22T08:01:19;27.50;99.90
21678;DHT22;11000;50.360;7.582;2023-06-22T08:03:41;27.50;99.90
21678;DHT22;11000;50.360;7.582;2023-06-22T08:06:01;28.00;99.90
21678;DHT22;11000;50.360;7.582;2023-06-22T08:08:22;27.90;99.90
21678;DHT22;11000;50.360;7.582;2023-06-22T08:10:42;28.30;99.90
21678;DHT22;11000;50.360;7.582;2023-06-22T08:13:03;29.20;99.90
21678;DHT22;11000;50.360;7.582;2023-06-22T08:15:23;29.70;99.90
21678;DHT22;11000;50.360;7.582;2023-06-22T08:17:45;30.00;99.90
21678;DHT22;11000;50.360;7.582;2023-06-22T08:20:09;30.20;99.90
21678;DHT22;11000;50.360;7.582;2023-06-22T08:22:32;29.50;99.90
21678;DHT22;11000;50.360;7.582;2023-06-22T08:24:53;29.80;99.90
21678;DHT22;11000;50.360;7.582;2023-06-22T08:27:14;29.70;99.90
21678;DHT22;11000;50.360;7.582;2023-06-22T08:29:41;29.70;99.90
21678;DHT22;11000;50.360;7.582;2023-06-22T08:32:02;30.00;99.90
21678;DHT22;11000;50.360;7.582;2023-06-22T08:34:23;29.80;99.90
21678;DHT22;11000;50.360;7.582;2023-06-22T08:36:45;30.00;99.90
21678;DHT22;11000;50.360;7.582;2023-06-22T08:39:11;29.70;99.90
21678;DHT22;11000;50.360;7.582;2023-06-22T08:41:32;30.00;99.90
21678;DHT22;11000;50.360;7.582;2023-06-22T08:43:52;29.80;99.90
21678;DHT22;11000;50.360;7.582;2023-06-22T08:46:13;29.70;99.90
21678;DHT22;11000;50.360;7.582;2023-06-22T08:48:34;29.30;99.90
21678;DHT22;11000;50.360;7.582;2023-06-22T08:50:54;28.50;99.90
21678;DHT22;11000;50.360;7.582;2023-06-22T08:53:15;28.60;99.90
21678;DHT22;11000;50.360;7.582;2023-06-22T08:55:35;28.60;99.90
21678;DHT22;11000;50.360;7.582;2023-06-22T08:57:55;28.60;99.90
21678;DHT22;11000;50.360;7.582;2023-06-22T09:00:16;28.80;99.90
21678;DHT22;11000;50.360;7.582;2023-06-22T09:02:37;29.40;99.90
21678;DHT22;11000;50.360;7.582;2023-06-22T09:05:03;29.60;99.90
21678;DHT22;11000;50.360;7.582;2023-06-22T09:07:24;29.60;99.90
21678;DHT22;11000;50.360;7.582;2023-06-22T09:09:46;29.20;99.90
21678;DHT22;11000;50.360;7.582;2023-06-22T09:12:07;28.90;99.90
21678;DHT22;11000;50.360;7.582;2023-06-22T09:14:28;28.90;99.90
21678;DHT22;11000;50.360;7.582;2023-06-22T09:16:48;29.20;99.90
21678;DHT22;11000;50.360;7.582;2023-06-22T09:19:09;29.50;99.90
21678;DHT22;11000;50.360;7.582;2023-06-22T09:21:29;29.70;99.90
21678;DHT22;11000;50.360;7.582;2023-06-22T09:23:50;29.80;99.90
21678;DHT22;11000;50.360;7.582;2023-06-22T09:26:11;30.00;99.90
21678;DHT22;11000;50.360;7.582;2023-06-22T09:28:32;29.90;99.90
21678;DHT22;11000;50.360;7.582;2023-06-22T09:30:53;30.10;99.90
21678;DHT22;11000;50.360;7.582;2023-06-22T09:33:19;30.30;99.90
21678;DHT22;11000;50.360;7.582;2023-06-22T09:35:40;30.70;99.90
21678;DHT22;11000;50.360;7.582;2023-06-22T09:38:00;30.30;99.90
21678;DHT22;11000;50.360;7.582;2023-06-22T09:40:20;29.60;99.90
21678;DHT22;11000;50.360;7.582;2023-06-22T09:42:41;29.80;99.90
21678;DHT22;11000;50.360;7.582;2023-06-22T09:45:02;29.90;99.90
21678;DHT22;11000;50.360;7.582;2023-06-22T09:47:23;29.60;99.90
21678;DHT22;11000;50.360;7.582;2023-06-22T09:49:43;29.10;99.90
21678;DHT22;11000;50.360;7.582;2023-06-22T09:52:04;28.90;99.90
21678;DHT22;11000;50.360;7.582;2023-06-22T09:54:25;28.90;99.90
21678;DHT22;11000;50.360;7.582;2023-06-22T09:56:46;29.10;99.90
21678;DHT22;11000;50.360;7.582;2023-06-22T09:59:06;29.00;99.90
21678;DHT22;11000;50.360;7.582;2023-06-22T10:01:27;28.50;99.90
21678;DHT22;11000;50.360;7.582;2023-06-22T10:03:47;28.20;99.90
21678;DHT22;11000;50.360;7.582;2023-06-22T10:06:08;28.00;99.90
21678;DHT22;11000;50.360;7.582;2023-06-22T10:08:29;27.90;99.90
21678;DHT22;11000;50.360;7.582;2023-06-22T10:10:49;28.20;99.90
21678;DHT22;11000;50.360;7.582;2023-06-22T10:13:10;28.00;99.90
21678;DHT22;11000;50.360;7.582;2023-06-22T10:15:31;28.00;99.90
21678;DHT22;11000;50.360;7.582;2023-06-22T10:17:52;27.90;99.90
21678;DHT22;11000;50.360;7.582;2023-06-22T10:20:13;27.80;99.90
21678;DHT22;11000;50.360;7.582;2023-06-22T10:22:33;27.90;99.90
21678;DHT22;11000;50.360;7.582;2023-06-22T10:24:54;28.00;99.90
21678;DHT22;11000;50.360;7.582;2023-06-22T10:27:14;28.10;99.90
21678;DHT22;11000;50.360;7.582;2023-06-22T10:29:35;27.90;99.90
21678;DHT22;11000;50.360;7.582;2023-06-22T10:31:56;27.70;99.90
21678;DHT22;11000;50.360;7.582;2023-06-22T10:34:16;27.50;99.90
21678;DHT22;11000;50.360;7.582;2023-06-22T10:36:38;27.40;99.90
21678;DHT22;11000;50.360;7.582;2023-06-22T10:38:58;27.40;99.90
21678;DHT22;11000;50.360;7.582;2023-06-22T10:41:19;27.10;99.90
21678;DHT22;11000;50.360;7.582;2023-06-22T10:43:40;26.90;99.90
21678;DHT22;11000;50.360;7.582;2023-06-22T10:46:00;26.80;99.90
21678;DHT22;11000;50.360;7.582;2023-06-22T10:48:21;26.80;99.90
21678;DHT22;11000;50.360;7.582;2023-06-22T10:50:41;26.90;99.90
21678;DHT22;11000;50.360;7.582;2023-06-22T10:53:02;27.10;99.90
21678;DHT22;11000;50.360;7.582;2023-06-22T10:55:22;27.30;99.90
21678;DHT22;11000;50.360;7.582;2023-06-22T10:57:43;27.30;99.90
21678;DHT22;11000;50.360;7.582;2023-06-22T11:00:05;27.60;99.90
21678;DHT22;11000;50.360;7.582;2023-06-22T11:02:26;27.80;99.90
21678;DHT22;11000;50.360;7.582;2023-06-22T11:04:48;28.40;99.90
21678;DHT22;11000;50.360;7.582;2023-06-22T11:07:09;29.00;99.90
21678;DHT22;11000;50.360;7.582;2023-06-22T11:09:29;29.40;99.90
21678;DHT22;11000;50.360;7.582;2023-06-22T11:11:51;29.80;99.90
21678;DHT22;11000;50.360;7.582;2023-06-22T11:14:15;30.40;99.90
21678;DHT22;11000;50.360;7.582;2023-06-22T11:16:35;30.90;99.90
21678;DHT22;11000;50.360;7.582;2023-06-22T11:18:56;31.10;99.90
21678;DHT22;11000;50.360;7.582;2023-06-22T11:21:16;31.10;99.90
21678;DHT22;11000;50.360;7.582;2023-06-22T11:23:37;30.80;99.90
21678;DHT22;11000;50.360;7.582;2023-06-22T11:25:57;30.80;99.90
21678;DHT22;11000;50.360;7.582;2023-06-22T11:28:18;30.90;99.90
21678;DHT22;11000;50.360;7.582;2023-06-22T11:30:38;30.10;99.90
21678;DHT22;11000;50.360;7.582;2023-06-22T11:32:59;29.90;99.90
21678;DHT22;11000;50.360;7.582;2023-06-22T11:35:20;29.80;99.90
21678;DHT22;11000;50.360;7.582;2023-06-22T11:37:40;29.20;99.90
21678;DHT22;11000;50.360;7.582;2023-06-22T11:40:01;28.90;99.90
21678;DHT22;11000;50.360;7.582;2023-06-22T11:42:23;29.10;99.90
21678;DHT22;11000;50.360;7.582;2023-06-22T11:44:43;29.30;99.90
21678;DHT22;11000;50.360;7.582;2023-06-22T11:47:04;28.50;99.90
21678;DHT22;11000;50.360;7.582;2023-06-22T11:49:25;28.60;99.90
21678;DHT22;11000;50.360;7.582;2023-06-22T11:51:45;28.90;99.90
21678;DHT22;11000;50.360;7.582;2023-06-22T11:54:06;29.00;99.90
21678;DHT22;11000;50.360;7.582;2023-06-22T11:56:26;28.90;99.90
21678;DHT22;11000;50.360;7.582;2023-06-22T11:58:48;28.80;99.90
21678;DHT22;11000;50.360;7.582;2023-06-22T12:01:08;28.60;99.90
21678;DHT22;11000;50.360;7.582;2023-06-22T12:03:29;28.50;99.90
21678;DHT22;11000;50.360;7.582;2023-06-22T12:05:50;28.40;99.90
21678;DHT22;11000;50.360;7.582;2023-06-22T12:08:14;28.90;99.90
21678;DHT22;11000;50.360;7.582;2023-06-22T12:10:34;29.30;99.90
21678;DHT22;11000;50.360;7.582;2023-06-22T12:12:55;29.90;99.90
21678;DHT22;11000;50.360;7.582;2023-06-22T12:15:15;30.30;99.90
21678;DHT22;11000;50.360;7.582;2023-06-22T12:17:36;30.40;99.90
21678;DHT22;11000;50.360;7.582;2023-06-22T12:19:57;30.60;99.90
21678;DHT22;11000;50.360;7.582;2023-06-22T12:22:17;31.50;99.90
21678;DHT22;11000;50.360;7.582;2023-06-22T12:24:38;31.90;99.90
21678;DHT22;11000;50.360;7.582;2023-06-22T12:26:58;31.50;99.90
21678;DHT22;11000;50.360;7.582;2023-06-22T12:29:18;31.90;99.90
21678;DHT22;11000;50.360;7.582;2023-06-22T12:31:39;32.10;99.90
21678;DHT22;11000;50.360;7.582;2023-06-22T12:34:00;32.20;99.90
21678;DHT22;11000;50.360;7.582;2023-06-22T12:36:20;31.00;99.90
21678;DHT22;11000;50.360;7.582;2023-06-22T12:38:40;30.80;99.90
21678;DHT22;11000;50.360;7.582;2023-06-22T12:41:01;31.40;99.90
21678;DHT22;11000;50.360;7.582;2023-06-22T12:43:21;31.80;99.90
21678;DHT22;11000;50.360;7.582;2023-06-22T12:45:42;32.10;99.90
21678;DHT22;11000;50.360;7.582;2023-06-22T12:48:02;31.70;99.90
21678;DHT22;11000;50.360;7.582;2023-06-22T12:50:23;32.10;99.90
21678;DHT22;11000;50.360;7.582;2023-06-22T12:52:43;32.40;99.90
21678;DHT22;11000;50.360;7.582;2023-06-22T12:55:04;31.90;99.90
21678;DHT22;11000;50.360;7.582;2023-06-22T12:57:25;31.70;99.90
21678;DHT22;11000;50.360;7.582;2023-06-22T12:59:45;31.50;99.90
21678;DHT22;11000;50.360;7.582;2023-06-22T13:02:06;31.80;99.90
21678;DHT22;11000;50.360;7.582;2023-06-22T13:04:26;31.80;99.90
21678;DHT22;11000;50.360;7.582;2023-06-22T13:06:47;32.50;99.90
21678;DHT22;11000;50.360;7.582;2023-06-22T13:09:09;32.10;99.90
21678;DHT22;11000;50.360;7.582;2023-06-22T13:11:30;32.30;99.90
21678;DHT22;11000;50.360;7.582;2023-06-22T13:13:50;32.20;99.90
21678;DHT22;11000;50.360;7.582;2023-06-22T13:16:11;32.10;99.90
21678;DHT22;11000;50.360;7.582;2023-06-22T13:18:32;32.20;99.90
21678;DHT22;11000;50.360;7.582;2023-06-22T13:20:54;32.30;99.90
21678;DHT22;11000;50.360;7.582;2023-06-22T13:23:15;32.40;99.90
21678;DHT22;11000;50.360;7.582;2023-06-22T13:25:35;32.10;99.90
21678;DHT22;11000;50.360;7.582;2023-06-22T13:27:55;32.00;99.90
21678;DHT22;11000;50.360;7.582;2023-06-22T13:30:16;31.60;99.90
21678;DHT22;11000;50.360;7.582;2023-06-22T13:32:36;31.40;99.90
21678;DHT22;11000;50.360;7.582;2023-06-22T13:34:57;31.40;99.90
21678;DHT22;11000;50.360;7.582;2023-06-22T13:37:18;31.50;99.90
21678;DHT22;11000;50.360;7.582;2023-06-22T13:39:38;31.50;99.90
21678;DHT22;11000;50.360;7.582;2023-06-22T13:41:59;31.60;99.90
21678;DHT22;11000;50.360;7.582;2023-06-22T13:44:19;31.20;99.90
21678;DHT22;11000;50.360;7.582;2023-06-22T13:46:42;30.80;99.90
21678;DHT22;11000;50.360;7.582;2023-06-22T13:49:02;30.40;99.90
21678;DHT22;11000;50.360;7.582;2023-06-22T13:51:23;30.00;99.90
21678;DHT22;11000;50.360;7.582;2023-06-22T13:53:44;29.90;99.90
21678;DHT22;11000;50.360;7.582;2023-06-22T13:56:04;29.80;99.90
21678;DHT22;11000;50.360;7.582;2023-06-22T13:58:25;29.70;99.90
21678;DHT22;11000;50.360;7.582;2023-06-22T14:00:45;29.60;99.90
21678;DHT22;11000;50.360;7.582;2023-06-22T14:03:06;29.40;99.90
21678;DHT22;11000;50.360;7.582;2023-06-22T14:05:26;29.50;99.90
21678;DHT22;11000;50.360;7.582;2023-06-22T14:07:47;29.30;99.90
21678;DHT22;11000;50.360;7.582;2023-06-22T14:10:08;29.40;99.90
21678;DHT22;11000;50.360;7.582;2023-06-22T14:12:28;29.30;99.90
21678;DHT22;11000;50.360;7.582;2023-06-22T14:14:49;29.20;99.90
21678;DHT22;11000;50.360;7.582;2023-06-22T14:17:10;29.10;99.90
21678;DHT22;11000;50.360;7.582;2023-06-22T14:19:30;29.10;99.90
21678;DHT22;11000;50.360;7.582;2023-06-22T14:21:51;29.00;99.90
21678;DHT22;11000;50.360;7.582;2023-06-22T14:24:11;28.70;99.90
21678;DHT22;11000;50.360;7.582;2023-06-22T14:26:32;27.50;99.90
21678;DHT22;11000;50.360;7.582;2023-06-22T14:28:53;25.90;99.90
21678;DHT22;11000;50.360;7.582;2023-06-22T14:31:17;24.80;99.90
21678;DHT22;11000;50.360;7.582;2023-06-22T14:33:38;24.10;99.90
21678;DHT22;11000;50.360;7.582;2023-06-22T14:35:59;23.40;99.90
21678;DHT22;11000;50.360;7.582;2023-06-22T14:38:19;23.50;99.90
21678;DHT22;11000;50.360;7.582;2023-06-22T14:40:40;23.50;99.90
21678;DHT22;11000;50.360;7.582;2023-06-22T14:43:00;23.70;99.90
21678;DHT22;11000;50.360;7.582;2023-06-22T14:45:21;23.70;99.90
21678;DHT22;11000;50.360;7.582;2023-06-22T14:47:41;23.60;99.90
21678;DHT22;11000;50.360;7.582;2023-06-22T14:50:02;23.50;99.90
21678;DHT22;11000;50.360;7.582;2023-06-22T14:52:22;23.30;99.90
21678;DHT22;11000;50.360;7.582;2023-06-22T14:54:43;23.30;99.90
21678;DHT22;11000;50.360;7.582;2023-06-22T14:57:03;23.10;99.90